Terminal Aerodrome Forecast
Issued by NWS Sterling, VA

Home | Current Version | Previous Version | Text Only | Print | Product List | Glossary On
Versions: 1 2 3 4 5 6 7 8 9 10 11 12 13 14 15 16 17 18 19 20 21 22 23
064
FTUS41 KLWX 260527
TAFMRB
TAF
KMRB 260527Z 2606/2706 26006KT 5SM BR SCT060
     FM260700 26006KT 5SM BR BKN045
     FM261400 28013G22KT P6SM SCT025 BKN045
     FM262300 30011KT P6SM BKN045
     FM270000 31009KT P6SM SCT090=

USA.gov is the U.S. government's official web portal to all federal, state and local government web resources and services.